createdAt,value
2022-10-17T04:45:55.257Z,1005.19
2022-10-17T04:46:56.229Z,1005.18
2022-10-17T04:47:56.224Z,1005.16
2022-10-17T04:48:56.226Z,1005.14
2022-10-17T04:49:56.201Z,1005.14
2022-10-17T04:50:56.192Z,1005.16
2022-10-17T04:51:56.176Z,1005.16
2022-10-17T04:52:56.172Z,1005.17
2022-10-17T04:53:56.172Z,1005.17
2022-10-17T04:54:56.145Z,1005.15
2022-10-17T04:55:56.135Z,1005.14
2022-10-17T04:56:56.123Z,1005.12
2022-10-17T04:57:56.111Z,1005.12
2022-10-17T04:58:56.116Z,1005.10
2022-10-17T04:59:56.145Z,1005.10
2022-10-17T05:00:56.116Z,1005.10
2022-10-17T05:01:56.072Z,1005.09
2022-10-17T05:02:56.059Z,1005.06
2022-10-17T05:03:56.070Z,1005.06
2022-10-17T05:04:56.031Z,1005.05
2022-10-17T05:05:56.028Z,1005.05
2022-10-17T05:06:56.016Z,1005.03
2022-10-17T05:07:56.010Z,1005.02
2022-10-17T05:08:56.035Z,1005.01
2022-10-17T05:09:55.986Z,1004.97
2022-10-17T05:10:56.025Z,1004.95
2022-10-17T05:11:55.967Z,1004.95
2022-10-17T05:12:55.947Z,1004.94
2022-10-17T05:13:55.987Z,1004.92
2022-10-17T05:14:55.927Z,1004.91
2022-10-17T05:15:55.921Z,1004.91
2022-10-17T05:16:55.916Z,1004.91
2022-10-17T05:17:55.900Z,1004.93
2022-10-17T05:18:55.904Z,1004.94
2022-10-17T05:19:55.891Z,1004.95
2022-10-17T05:20:55.867Z,1004.96
2022-10-17T05:21:55.861Z,1004.95
2022-10-17T05:22:55.847Z,1004.96
2022-10-17T05:23:55.855Z,1004.97
2022-10-17T05:24:55.825Z,1004.98
2022-10-17T05:25:55.815Z,1005.00
2022-10-17T05:26:55.803Z,1004.99
2022-10-17T05:27:55.796Z,1005.00
2022-10-17T05:28:55.884Z,1004.99
2022-10-17T05:29:55.776Z,1005.00
2022-10-17T05:30:55.759Z,1005.01
2022-10-17T05:31:55.837Z,1005.02
2022-10-17T05:32:55.740Z,1005.02
2022-10-17T05:33:55.757Z,1005.02
2022-10-17T05:34:55.721Z,1005.01
2022-10-17T05:35:55.719Z,1005.01
2022-10-17T05:36:55.700Z,1005.01
2022-10-17T05:37:55.700Z,1005.02
2022-10-17T05:38:55.688Z,1005.04
2022-10-17T05:39:55.671Z,1005.07
2022-10-17T05:40:55.658Z,1005.10
2022-10-17T05:41:55.654Z,1005.12
2022-10-17T05:42:55.633Z,1005.15
2022-10-17T05:43:55.643Z,1005.17
2022-10-17T05:44:55.614Z,1005.16
2022-10-17T05:45:55.615Z,1005.15
2022-10-17T05:46:55.594Z,1005.16
2022-10-17T05:47:55.574Z,1005.18
2022-10-17T05:48:55.572Z,1005.19
2022-10-17T05:49:55.563Z,1005.19
2022-10-17T05:50:55.550Z,1005.21
2022-10-17T05:51:55.546Z,1005.21
2022-10-17T05:52:55.531Z,1005.19
2022-10-17T05:53:55.546Z,1005.20
2022-10-17T05:54:55.511Z,1005.22
2022-10-17T05:55:55.501Z,1005.23
2022-10-17T05:56:55.487Z,1005.23
2022-10-17T05:57:55.485Z,1005.25
2022-10-17T05:59:00.786Z,1005.27
2022-10-17T05:59:55.472Z,1005.29
2022-10-17T06:00:55.445Z,1005.31
2022-10-17T06:01:55.525Z,1005.32
2022-10-17T06:02:55.427Z,1005.31
2022-10-17T06:03:55.435Z,1005.30
2022-10-17T06:04:55.406Z,1005.31
2022-10-17T06:05:55.399Z,1005.31
2022-10-17T06:06:55.388Z,1005.32
2022-10-17T06:07:58.245Z,1005.33
2022-10-17T06:08:55.371Z,1005.35
2022-10-17T06:09:55.377Z,1005.36
2022-10-17T06:10:55.339Z,1005.37
2022-10-17T06:11:55.338Z,1005.36
2022-10-17T06:12:55.316Z,1005.41
2022-10-17T06:13:55.318Z,1005.43
2022-10-17T06:14:55.316Z,1005.46
2022-10-17T06:15:55.296Z,1005.47
2022-10-17T06:16:55.279Z,1005.49
2022-10-17T06:17:55.275Z,1005.50
2022-10-17T06:18:55.263Z,1005.52
2022-10-17T06:19:55.262Z,1005.56
2022-10-17T06:20:55.234Z,1005.58
2022-10-17T06:21:55.229Z,1005.57
2022-10-17T06:22:55.212Z,1005.59
2022-10-17T06:23:55.218Z,1005.61
2022-10-17T06:24:55.210Z,1005.65
2022-10-17T06:25:55.185Z,1005.63
2022-10-17T06:26:55.171Z,1005.68
2022-10-17T06:27:55.170Z,1005.70
2022-10-17T06:28:55.232Z,1005.73
2022-10-17T06:29:55.180Z,1005.76
2022-10-17T06:30:55.125Z,1005.80
2022-10-17T06:31:55.126Z,1005.80
2022-10-17T06:32:55.105Z,1005.80
2022-10-17T06:33:55.104Z,1005.78
2022-10-17T06:34:55.102Z,1005.79
2022-10-17T06:35:55.078Z,1005.76
2022-10-17T06:37:55.068Z,1005.77
2022-10-17T06:38:55.050Z,1005.79
2022-10-17T06:39:55.056Z,1005.83
2022-10-17T06:40:55.019Z,1005.88
2022-10-17T06:41:55.017Z,1005.89
2022-10-17T06:42:55.003Z,1005.90
2022-10-17T06:43:55.001Z,1005.94
2022-10-17T06:44:54.995Z,1005.95
2022-10-17T06:45:54.977Z,1005.97
2022-10-17T06:46:54.961Z,1006.01
2022-10-17T06:47:54.951Z,1006.04
2022-10-17T06:48:54.936Z,1006.07
2022-10-17T06:49:54.946Z,1006.08
2022-10-17T06:50:54.912Z,1006.11
2022-10-17T06:51:54.921Z,1006.13
2022-10-17T06:52:54.896Z,1006.13
2022-10-17T06:53:54.891Z,1006.12
2022-10-17T06:54:54.912Z,1006.09
2022-10-17T06:55:54.864Z,1006.10
2022-10-17T06:56:54.854Z,1006.08
2022-10-17T06:57:54.844Z,1006.07
2022-10-17T06:58:54.826Z,1006.06
2022-10-17T06:59:54.836Z,1006.08
2022-10-17T07:00:58.641Z,1006.11
2022-10-17T07:01:55.059Z,1006.11
2022-10-17T07:02:54.791Z,1006.14
2022-10-17T07:03:54.787Z,1006.16
2022-10-17T07:04:54.794Z,1006.18
2022-10-17T07:05:54.767Z,1006.17
2022-10-17T07:06:54.808Z,1006.18
2022-10-17T07:07:54.751Z,1006.16
2022-10-17T07:08:54.726Z,1006.19
2022-10-17T07:09:54.725Z,1006.19
2022-10-17T07:10:54.721Z,1006.19
2022-10-17T07:11:54.699Z,1006.18
2022-10-17T07:12:54.688Z,1006.17
2022-10-17T07:13:54.675Z,1006.18
2022-10-17T07:14:54.659Z,1006.18
2022-10-17T07:15:54.735Z,1006.19
2022-10-17T07:16:54.648Z,1006.22
2022-10-17T07:17:54.638Z,1006.22
2022-10-17T07:18:54.623Z,1006.22
2022-10-17T07:19:54.621Z,1006.24
2022-10-17T07:20:54.613Z,1006.26
2022-10-17T07:21:54.592Z,1006.25
2022-10-17T07:22:54.576Z,1006.22
2022-10-17T07:23:54.571Z,1006.23
2022-10-17T07:24:54.561Z,1006.25
2022-10-17T07:25:54.567Z,1006.22
2022-10-17T07:26:54.529Z,1006.24
2022-10-17T07:27:54.528Z,1006.22
2022-10-17T07:28:54.536Z,1006.23
2022-10-17T07:29:54.510Z,1006.24
2022-10-17T07:30:54.649Z,1006.24
2022-10-17T07:31:54.488Z,1006.26
2022-10-17T07:32:54.473Z,1006.24
2022-10-17T07:33:54.606Z,1006.24
2022-10-17T07:34:54.451Z,1006.24
2022-10-17T07:35:54.458Z,1006.25
2022-10-17T07:36:54.423Z,1006.28
2022-10-17T07:37:54.421Z,1006.32
2022-10-17T07:38:54.403Z,1006.31
2022-10-17T07:39:54.398Z,1006.32
2022-10-17T07:40:54.406Z,1006.36
2022-10-17T07:41:54.375Z,1006.37
2022-10-17T07:42:54.362Z,1006.37
2022-10-17T07:43:54.363Z,1006.37
2022-10-17T07:44:54.339Z,1006.37
2022-10-17T07:45:54.351Z,1006.35
2022-10-17T07:46:54.319Z,1006.36
2022-10-17T07:47:54.312Z,1006.35
2022-10-17T07:48:54.299Z,1006.35
2022-10-17T07:49:54.298Z,1006.34
2022-10-17T07:50:54.299Z,1006.32
2022-10-17T07:51:54.268Z,1006.33
2022-10-17T07:52:54.264Z,1006.35
2022-10-17T07:53:54.246Z,1006.37
2022-10-17T07:54:54.235Z,1006.38
2022-10-17T07:55:54.245Z,1006.37
2022-10-17T07:56:54.217Z,1006.38
2022-10-17T07:57:54.226Z,1006.37
2022-10-17T07:58:54.276Z,1006.33
2022-10-17T07:59:54.186Z,1006.34
2022-10-17T08:00:54.358Z,1006.31
2022-10-17T08:01:54.167Z,1006.29
2022-10-17T08:02:54.150Z,1006.29
2022-10-17T08:03:54.144Z,1006.24
2022-10-17T08:04:54.123Z,1006.31
2022-10-17T08:05:54.124Z,1006.30
2022-10-17T08:07:05.465Z,1006.30
2022-10-17T08:07:54.098Z,1006.30
2022-10-17T08:08:54.083Z,1006.32
2022-10-17T08:09:54.115Z,1006.31
2022-10-17T08:10:54.064Z,1006.28
2022-10-17T08:11:54.070Z,1006.30
2022-10-17T08:12:54.045Z,1006.29
2022-10-17T08:13:54.043Z,1006.29
2022-10-17T08:14:54.029Z,1006.32
2022-10-17T08:15:54.027Z,1006.30
2022-10-17T08:16:54.010Z,1006.27
2022-10-17T08:17:53.996Z,1006.24
2022-10-17T08:18:53.980Z,1006.15
2022-10-17T08:19:53.981Z,1006.22
2022-10-17T08:20:56.801Z,1006.23
2022-10-17T08:21:53.960Z,1006.22
2022-10-17T08:22:53.934Z,1006.23
2022-10-17T08:23:53.926Z,1006.23
2022-10-17T08:24:53.917Z,1006.22
2022-10-17T08:25:53.908Z,1006.17
2022-10-17T08:26:53.911Z,1006.19
2022-10-17T08:27:53.948Z,1006.19
2022-10-17T08:28:53.921Z,1006.18
2022-10-17T08:29:53.865Z,1006.20
2022-10-17T08:30:53.868Z,1006.22
2022-10-17T08:31:58.556Z,1006.21
2022-10-17T08:32:53.838Z,1006.25
2022-10-17T08:33:53.823Z,1006.19
2022-10-17T08:34:53.809Z,1006.22
2022-10-17T08:35:53.818Z,1006.26
2022-10-17T08:36:53.798Z,1006.28
2022-10-17T08:37:53.794Z,1006.25
2022-10-17T08:38:53.774Z,1006.25
2022-10-17T08:39:53.765Z,1006.27
2022-10-17T08:40:53.780Z,1006.27
2022-10-17T08:41:53.740Z,1006.23
2022-10-17T08:42:53.735Z,1006.23
2022-10-17T08:43:53.754Z,1006.24
2022-10-17T08:44:53.721Z,1006.26
2022-10-17T08:45:53.842Z,1006.27
2022-10-17T08:46:53.689Z,1006.27
2022-10-17T08:47:53.681Z,1006.29
2022-10-17T08:48:53.669Z,1006.27
2022-10-17T08:49:53.655Z,1006.31
2022-10-17T08:50:53.649Z,1006.30
2022-10-17T08:51:53.661Z,1006.32
2022-10-17T08:52:53.629Z,1006.28
2022-10-17T08:53:53.623Z,1006.31
2022-10-17T08:54:53.605Z,1006.33
2022-10-17T08:55:53.603Z,1006.34
2022-10-17T08:56:53.607Z,1006.33
2022-10-17T08:57:53.579Z,1006.37
2022-10-17T08:58:53.573Z,1006.34
2022-10-17T08:59:53.603Z,1006.36
2022-10-17T09:00:53.548Z,1006.36
2022-10-17T09:01:53.547Z,1006.33
2022-10-17T09:02:53.607Z,1006.33
2022-10-17T09:03:53.512Z,1006.33
2022-10-17T09:04:53.505Z,1006.33
2022-10-17T09:05:53.498Z,1006.33
2022-10-17T09:06:53.494Z,1006.31
2022-10-17T09:07:53.514Z,1006.28
2022-10-17T09:08:53.462Z,1006.30
2022-10-17T09:09:53.453Z,1006.28
2022-10-17T09:10:53.440Z,1006.27
2022-10-17T09:11:53.445Z,1006.23
2022-10-17T09:12:53.423Z,1006.24
2022-10-17T09:13:53.401Z,1006.28
2022-10-17T09:14:53.398Z,1006.29
2022-10-17T09:15:53.387Z,1006.30
2022-10-17T09:16:53.386Z,1006.33
2022-10-17T09:17:53.363Z,1006.34
2022-10-17T09:18:53.362Z,1006.33
2022-10-17T09:19:53.341Z,1006.28
2022-10-17T09:20:53.333Z,1006.27
2022-10-17T09:21:53.326Z,1006.30
2022-10-17T09:22:53.368Z,1006.30
2022-10-17T09:23:59.684Z,1006.31
2022-10-17T09:24:53.301Z,1006.35
2022-10-17T09:25:53.275Z,1006.40
2022-10-17T09:26:53.284Z,1006.41
2022-10-17T09:27:53.258Z,1006.44
2022-10-17T09:28:53.372Z,1006.43
2022-10-17T09:29:53.233Z,1006.43
2022-10-17T09:30:53.230Z,1006.45
2022-10-17T09:31:53.318Z,1006.38
2022-10-17T09:32:53.211Z,1006.40
2022-10-17T09:33:54.597Z,1006.41
2022-10-17T09:34:53.193Z,1006.44
2022-10-17T09:35:53.179Z,1006.43
2022-10-17T09:36:53.198Z,1006.44
2022-10-17T09:37:53.150Z,1006.44
2022-10-17T09:38:53.145Z,1006.43
2022-10-17T09:39:53.128Z,1006.47
2022-10-17T09:40:56.841Z,1006.46
2022-10-17T09:41:53.127Z,1006.45
2022-10-17T09:42:53.105Z,1006.47
2022-10-17T09:43:53.089Z,1006.45
2022-10-17T09:44:53.082Z,1006.40
2022-10-17T09:45:53.069Z,1006.34
2022-10-17T09:46:53.063Z,1006.33
2022-10-17T09:47:53.065Z,1006.28
2022-10-17T09:48:53.538Z,1006.31
2022-10-17T09:49:53.030Z,1006.34
2022-10-17T09:51:02.625Z,1006.36
2022-10-17T09:51:53.015Z,1006.39
2022-10-17T09:52:53.017Z,1006.39
2022-10-17T09:53:52.984Z,1006.42
2022-10-17T09:54:52.982Z,1006.46
2022-10-17T09:55:52.971Z,1006.43
2022-10-17T09:56:52.961Z,1006.52
2022-10-17T09:57:52.964Z,1006.55
2022-10-17T09:58:52.937Z,1006.61
2022-10-17T09:59:52.923Z,1006.63
2022-10-17T10:00:52.989Z,1006.67
2022-10-17T10:01:52.902Z,1006.72
2022-10-17T10:02:52.914Z,1006.77
2022-10-17T10:03:52.884Z,1006.83
2022-10-17T10:05:03.735Z,1006.87
2022-10-17T10:05:52.871Z,1006.92
2022-10-17T10:06:52.855Z,1006.92
2022-10-17T10:07:52.854Z,1006.93
2022-10-17T10:08:52.837Z,1006.96
2022-10-17T10:09:52.813Z,1006.98
2022-10-17T10:10:52.815Z,1006.97
2022-10-17T10:11:52.799Z,1006.99
2022-10-17T10:12:52.816Z,1007.00
2022-10-17T10:13:52.787Z,1007.01
2022-10-17T10:14:54.745Z,1007.02
2022-10-17T10:15:52.758Z,1007.02
2022-10-17T10:16:52.747Z,1007.07
2022-10-17T10:17:52.748Z,1007.11
2022-10-17T10:18:52.734Z,1007.12
2022-10-17T10:19:52.716Z,1007.11
2022-10-17T10:20:52.719Z,1007.12
2022-10-17T10:21:52.699Z,1007.11
2022-10-17T10:22:54.981Z,1007.11
2022-10-17T10:23:52.676Z,1007.12
2022-10-17T10:24:52.664Z,1007.12
2022-10-17T10:25:52.655Z,1007.13
2022-10-17T10:26:52.649Z,1007.10
2022-10-17T10:27:52.646Z,1007.11
2022-10-17T10:28:52.702Z,1007.11
2022-10-17T10:29:52.611Z,1007.12
2022-10-17T10:30:52.608Z,1007.13
2022-10-17T10:31:52.593Z,1007.20
2022-10-17T10:32:52.602Z,1007.18
2022-10-17T10:33:56.704Z,1007.19
2022-10-17T10:34:52.565Z,1007.26
2022-10-17T10:35:52.548Z,1007.23
2022-10-17T10:36:52.541Z,1007.26
2022-10-17T10:37:52.550Z,1007.22
2022-10-17T10:38:52.523Z,1007.18
2022-10-17T10:39:52.505Z,1007.20
2022-10-17T10:40:52.505Z,1007.16
2022-10-17T10:41:52.487Z,1007.20
2022-10-17T10:42:52.475Z,1007.25
2022-10-17T10:43:52.480Z,1007.29
2022-10-17T10:44:52.460Z,1007.32
2022-10-17T10:45:52.437Z,1007.36
2022-10-17T10:46:52.442Z,1007.37
2022-10-17T10:47:52.427Z,1007.35
2022-10-17T10:48:52.430Z,1007.38
2022-10-17T10:49:52.404Z,1007.39
2022-10-17T10:50:52.397Z,1007.37
2022-10-17T10:51:52.380Z,1007.39
2022-10-17T10:52:52.370Z,1007.40
2022-10-17T10:53:52.376Z,1007.43
2022-10-17T10:54:52.358Z,1007.47
2022-10-17T10:55:52.360Z,1007.45
2022-10-17T10:56:53.494Z,1007.43
2022-10-17T10:57:52.321Z,1007.43
2022-10-17T10:58:52.327Z,1007.45
2022-10-17T10:59:52.299Z,1007.47
2022-10-17T11:00:52.322Z,1007.47
2022-10-17T11:01:52.284Z,1007.50
2022-10-17T11:02:52.268Z,1007.52
2022-10-17T11:03:52.279Z,1007.54
2022-10-17T11:04:52.252Z,1007.53
2022-10-17T11:05:52.242Z,1007.56
2022-10-17T11:06:52.233Z,1007.59
2022-10-17T11:07:52.218Z,1007.64
2022-10-17T11:08:52.209Z,1007.63
2022-10-17T11:09:52.203Z,1007.65
2022-10-17T11:10:52.198Z,1007.65
2022-10-17T11:11:52.176Z,1007.67
2022-10-17T11:12:52.170Z,1007.70
2022-10-17T11:13:54.075Z,1007.74
2022-10-17T11:14:52.162Z,1007.75
2022-10-17T11:15:52.135Z,1007.77
2022-10-17T11:16:52.127Z,1007.76
2022-10-17T11:17:52.114Z,1007.78
2022-10-17T11:18:52.115Z,1007.83
2022-10-17T11:19:52.106Z,1007.77
2022-10-17T11:20:52.087Z,1007.80
2022-10-17T11:21:52.079Z,1007.80
2022-10-17T11:22:52.065Z,1007.81
2022-10-17T11:23:52.068Z,1007.84
2022-10-17T11:24:52.060Z,1007.86
2022-10-17T11:25:52.031Z,1007.86
2022-10-17T11:26:52.031Z,1007.88
2022-10-17T11:27:51.999Z,1007.88
2022-10-17T11:28:52.066Z,1007.88
2022-10-17T11:29:52.023Z,1007.92
2022-10-17T11:30:51.982Z,1007.93
2022-10-17T11:31:51.972Z,1007.93
2022-10-17T11:32:51.965Z,1007.97
2022-10-17T11:33:51.949Z,1008.03
2022-10-17T11:34:51.959Z,1008.05
2022-10-17T11:35:51.922Z,1008.13
2022-10-17T11:36:51.923Z,1008.09
2022-10-17T11:37:51.905Z,1008.17
2022-10-17T11:38:51.899Z,1008.19
2022-10-17T11:39:51.899Z,1008.20
2022-10-17T11:40:51.882Z,1008.21
2022-10-17T11:41:53.294Z,1008.29
2022-10-17T11:42:51.857Z,1008.26
2022-10-17T11:43:51.841Z,1008.28
2022-10-17T11:44:51.932Z,1008.28
2022-10-17T11:45:52.546Z,1008.30
2022-10-17T11:46:51.818Z,1008.27
2022-10-17T11:47:51.804Z,1008.23
2022-10-17T11:48:51.817Z,1008.19
2022-10-17T11:49:52.231Z,1008.22
2022-10-17T11:52:00.782Z,1008.16
2022-10-17T11:52:56.387Z,1007.98
2022-10-17T11:53:51.742Z,1008.12
2022-10-17T11:54:51.748Z,1008.22
2022-10-17T11:55:51.720Z,1008.30
2022-10-17T11:56:51.716Z,1008.29
2022-10-17T11:57:51.712Z,1008.29
2022-10-17T11:58:51.723Z,1008.32
2022-10-17T11:59:51.776Z,1008.29
2022-10-17T12:00:51.697Z,1008.33
2022-10-17T12:01:51.684Z,1008.43
2022-10-17T12:02:51.675Z,1008.40
2022-10-17T12:03:51.640Z,1008.39
2022-10-17T12:04:51.710Z,1008.40
2022-10-17T12:05:51.621Z,1008.38
2022-10-17T12:06:51.606Z,1008.45
2022-10-17T12:07:51.598Z,1008.41
2022-10-17T12:08:51.590Z,1008.40
2022-10-17T12:09:51.577Z,1008.41
2022-10-17T12:10:51.582Z,1008.41
2022-10-17T12:11:51.582Z,1008.44
2022-10-17T12:12:51.543Z,1008.38
2022-10-17T12:13:51.540Z,1008.38
2022-10-17T12:14:51.524Z,1008.38
2022-10-17T12:15:51.523Z,1008.34
2022-10-17T12:16:51.508Z,1008.36
2022-10-17T12:17:51.498Z,1008.36
2022-10-17T12:18:51.493Z,1008.32
2022-10-17T12:19:51.468Z,1008.35
2022-10-17T12:20:51.472Z,1008.34
2022-10-17T12:21:51.447Z,1008.33
2022-10-17T12:22:51.440Z,1008.37
2022-10-17T12:23:51.430Z,1008.33
2022-10-17T12:24:51.492Z,1008.34
2022-10-17T12:25:51.421Z,1008.31
2022-10-17T12:26:54.057Z,1008.38
2022-10-17T12:27:51.386Z,1008.38
2022-10-17T12:28:51.429Z,1008.38
2022-10-17T12:29:51.366Z,1008.31
2022-10-17T12:30:51.375Z,1008.25
2022-10-17T12:31:51.345Z,1008.26
2022-10-17T12:33:04.206Z,1008.19
2022-10-17T12:33:51.326Z,1008.14
2022-10-17T12:34:51.314Z,1008.12
2022-10-17T12:35:51.310Z,1008.16
2022-10-17T12:36:51.298Z,1008.19
2022-10-17T12:37:51.284Z,1008.21
2022-10-17T12:38:51.281Z,1008.20
2022-10-17T12:39:51.260Z,1008.22
2022-10-17T12:40:51.296Z,1008.21
2022-10-17T12:41:51.241Z,1008.21
2022-10-17T12:42:51.234Z,1008.23
2022-10-17T12:44:51.375Z,1008.21
2022-10-17T12:45:51.212Z,1008.20
2022-10-17T12:46:51.238Z,1008.21
2022-10-17T12:47:51.182Z,1008.22
2022-10-17T12:48:51.170Z,1008.21
2022-10-17T12:49:55.760Z,1008.19
2022-10-17T12:50:51.173Z,1008.21
2022-10-17T12:51:51.134Z,1008.21
2022-10-17T12:53:51.115Z,1008.27
2022-10-17T12:55:00.243Z,1008.30
2022-10-17T12:55:51.117Z,1008.29
2022-10-17T12:56:51.090Z,1008.28
2022-10-17T12:57:51.076Z,1008.28
2022-10-17T12:58:51.070Z,1008.27
2022-10-17T12:59:51.053Z,1008.27
2022-10-17T13:01:11.839Z,1008.28
2022-10-17T13:01:51.071Z,1008.29
2022-10-17T13:02:51.030Z,1008.29
2022-10-17T13:03:51.010Z,1008.27
2022-10-17T13:04:51.003Z,1008.31
2022-10-17T13:05:51.008Z,1008.34
2022-10-17T13:06:50.988Z,1008.30
2022-10-17T13:07:50.970Z,1008.30
2022-10-17T13:08:55.405Z,1008.34
2022-10-17T13:09:50.954Z,1008.34
2022-10-17T13:10:52.554Z,1008.34
2022-10-17T13:11:50.923Z,1008.35
2022-10-17T13:12:51.015Z,1008.37
2022-10-17T13:13:50.912Z,1008.37
2022-10-17T13:14:50.895Z,1008.38
2022-10-17T13:15:50.899Z,1008.37
2022-10-17T13:16:50.876Z,1008.38
2022-10-17T13:17:50.870Z,1008.40
2022-10-17T13:18:50.858Z,1008.42
2022-10-17T13:19:50.861Z,1008.45
2022-10-17T13:20:50.841Z,1008.46
2022-10-17T13:21:50.846Z,1008.48
2022-10-17T13:22:50.813Z,1008.52
2022-10-17T13:23:50.807Z,1008.55
2022-10-17T13:24:50.790Z,1008.56
2022-10-17T13:25:50.800Z,1008.52
2022-10-17T13:26:50.773Z,1008.46
2022-10-17T13:27:50.767Z,1008.47
2022-10-17T13:28:50.848Z,1008.48
2022-10-17T13:29:50.745Z,1008.50
2022-10-17T13:30:51.440Z,1008.51
2022-10-17T13:31:50.732Z,1008.53
2022-10-17T13:32:50.710Z,1008.55
2022-10-17T13:33:50.705Z,1008.59
2022-10-17T13:34:50.688Z,1008.63
2022-10-17T13:36:06.175Z,1008.64
2022-10-17T13:36:50.681Z,1008.65
2022-10-17T13:37:53.911Z,1008.65
2022-10-17T13:38:50.668Z,1008.65
2022-10-17T13:39:55.753Z,1008.68
2022-10-17T13:40:50.889Z,1008.66
2022-10-17T13:41:50.711Z,1008.66
2022-10-17T13:42:50.610Z,1008.64
2022-10-17T13:43:50.599Z,1008.66
2022-10-17T13:44:50.594Z,1008.67
2022-10-17T13:45:50.584Z,1008.69
2022-10-17T13:46:50.581Z,1008.68
2022-10-17T13:47:50.561Z,1008.72
2022-10-17T13:48:50.548Z,1008.74
2022-10-17T13:49:55.023Z,1008.77
2022-10-17T13:50:50.556Z,1008.75
2022-10-17T13:51:50.520Z,1008.78
2022-10-17T13:52:50.503Z,1008.80
2022-10-17T13:53:50.500Z,1008.81
2022-10-17T13:54:50.486Z,1008.82
2022-10-17T13:56:09.163Z,1008.80
2022-10-17T13:56:50.558Z,1008.80
2022-10-17T13:57:50.461Z,1008.82
2022-10-17T13:58:50.441Z,1008.81
2022-10-17T13:59:50.441Z,1008.85
2022-10-17T14:00:50.483Z,1008.84
2022-10-17T14:01:50.435Z,1008.86
2022-10-17T14:02:50.396Z,1008.87
2022-10-17T14:04:02.202Z,1008.88
2022-10-17T14:05:15.724Z,1008.91
2022-10-17T14:05:50.394Z,1008.91
2022-10-17T14:06:52.211Z,1008.91
2022-10-17T14:08:50.336Z,1008.92
2022-10-17T14:09:50.348Z,1008.92
2022-10-17T14:10:50.312Z,1008.93
2022-10-17T14:11:50.346Z,1008.95
2022-10-17T14:12:51.151Z,1008.93
2022-10-17T14:13:50.290Z,1008.97
2022-10-17T14:15:09.862Z,1008.96
2022-10-17T14:15:50.284Z,1008.98
2022-10-17T14:16:50.266Z,1008.98
2022-10-17T14:17:50.247Z,1008.98
2022-10-17T14:18:50.226Z,1008.99
2022-10-17T14:20:06.577Z,1009.00
2022-10-17T14:21:50.232Z,1008.97
2022-10-17T14:23:04.501Z,1008.99
2022-10-17T14:23:50.197Z,1008.97
2022-10-17T14:24:50.168Z,1009.00
2022-10-17T14:25:50.161Z,1008.98
2022-10-17T14:26:50.164Z,1009.00
2022-10-17T14:27:50.143Z,1008.99
2022-10-17T14:28:50.196Z,1008.99
2022-10-17T14:29:50.114Z,1009.02
2022-10-17T14:30:57.958Z,1009.05
2022-10-17T14:31:50.121Z,1009.04
2022-10-17T14:32:50.097Z,1009.07
2022-10-17T14:33:51.220Z,1009.08
2022-10-17T14:34:50.068Z,1009.08
2022-10-17T14:35:50.053Z,1009.08
2022-10-17T14:36:50.054Z,1009.10
2022-10-17T14:37:50.036Z,1009.13
2022-10-17T14:38:50.028Z,1009.14
2022-10-17T14:39:50.012Z,1009.17
2022-10-17T14:40:50.010Z,1009.14
2022-10-17T14:41:50.001Z,1009.16
2022-10-17T14:42:49.975Z,1009.23
2022-10-17T14:43:49.976Z,1009.22
2022-10-17T14:44:49.957Z,1009.27
2022-10-17T14:45:49.945Z,1009.26
2022-10-17T14:46:51.134Z,1009.28
2022-10-17T14:47:50.399Z,1009.25
2022-10-17T14:48:49.916Z,1009.27
2022-10-17T14:49:49.906Z,1009.31
2022-10-17T14:50:49.913Z,1009.30
2022-10-17T14:51:56.965Z,1009.33
2022-10-17T14:52:49.877Z,1009.36
2022-10-17T14:53:49.872Z,1009.37
2022-10-17T14:54:49.855Z,1009.38
2022-10-17T14:55:49.843Z,1009.42
2022-10-17T14:56:49.850Z,1009.38
2022-10-17T14:57:49.821Z,1009.41
2022-10-17T14:58:49.802Z,1009.41
2022-10-17T14:59:54.575Z,1009.42
2022-10-17T15:00:49.794Z,1009.40
2022-10-17T15:01:49.800Z,1009.41
2022-10-17T15:02:49.763Z,1009.39
2022-10-17T15:03:49.757Z,1009.37
2022-10-17T15:04:49.752Z,1009.35
2022-10-17T15:05:49.761Z,1009.39
2022-10-17T15:06:49.736Z,1009.38
2022-10-17T15:07:49.720Z,1009.35
2022-10-17T15:08:49.715Z,1009.34
2022-10-17T15:09:49.702Z,1009.38
2022-10-17T15:10:49.680Z,1009.42
2022-10-17T15:11:49.692Z,1009.45
2022-10-17T15:12:57.571Z,1009.47
2022-10-17T15:13:49.655Z,1009.51
2022-10-17T15:14:49.637Z,1009.57
2022-10-17T15:15:49.631Z,1009.52
2022-10-17T15:16:49.636Z,1009.57
2022-10-17T15:17:49.613Z,1009.54
2022-10-17T15:18:49.592Z,1009.52
2022-10-17T15:19:49.584Z,1009.57
2022-10-17T15:20:55.398Z,1009.60
2022-10-17T15:21:49.583Z,1009.63
2022-10-17T15:22:49.553Z,1009.57
2022-10-17T15:23:49.550Z,1009.65
2022-10-17T15:24:49.534Z,1009.66
2022-10-17T15:25:49.543Z,1009.69
2022-10-17T15:26:49.706Z,1009.70
2022-10-17T15:27:49.506Z,1009.77
2022-10-17T15:28:49.544Z,1009.74
2022-10-17T15:29:49.484Z,1009.79
2022-10-17T15:30:49.471Z,1009.79
2022-10-17T15:31:49.478Z,1009.79
2022-10-17T15:32:49.451Z,1009.81
2022-10-17T15:33:49.439Z,1009.86
2022-10-17T15:34:49.423Z,1009.87
2022-10-17T15:35:49.943Z,1009.89
2022-10-17T15:36:49.442Z,1009.88
2022-10-17T15:37:49.398Z,1009.91
2022-10-17T15:38:49.378Z,1009.94
2022-10-17T15:39:49.380Z,1009.99
2022-10-17T15:40:49.365Z,1009.99
2022-10-17T15:41:49.349Z,1010.01
2022-10-17T15:42:49.360Z,1010.02
2022-10-17T15:43:49.334Z,1010.02
2022-10-17T15:44:49.314Z,1010.04
2022-10-17T15:45:49.314Z,1010.05
2022-10-17T15:46:49.289Z,1010.07
2022-10-17T15:47:49.303Z,1010.10
2022-10-17T15:48:49.273Z,1010.09
2022-10-17T15:49:49.267Z,1010.09
2022-10-17T15:50:49.255Z,1010.09
2022-10-17T15:51:55.176Z,1010.10
2022-10-17T15:52:49.250Z,1010.13
2022-10-17T15:53:49.219Z,1010.14
2022-10-17T15:54:49.206Z,1010.16
2022-10-17T15:55:49.201Z,1010.18
2022-10-17T15:56:49.182Z,1010.21
2022-10-17T15:57:49.197Z,1010.23
2022-10-17T15:58:49.162Z,1010.23
2022-10-17T15:59:49.153Z,1010.22
2022-10-17T16:00:49.182Z,1010.20
2022-10-17T16:01:49.153Z,1010.14
2022-10-17T16:02:49.124Z,1010.10
2022-10-17T16:03:49.110Z,1010.16
2022-10-17T16:04:49.098Z,1010.17
2022-10-17T16:05:49.088Z,1010.20
2022-10-17T16:06:49.096Z,1010.22
2022-10-17T16:07:49.071Z,1010.22
2022-10-17T16:08:49.058Z,1010.25
2022-10-17T16:09:49.047Z,1010.26
2022-10-17T16:10:49.043Z,1010.25
2022-10-17T16:11:49.043Z,1010.25
2022-10-17T16:12:49.015Z,1010.24
2022-10-17T16:13:49.008Z,1010.27
2022-10-17T16:14:48.993Z,1010.28
2022-10-17T16:15:48.995Z,1010.24
2022-10-17T16:16:48.989Z,1010.26
2022-10-17T16:17:48.976Z,1010.28
2022-10-17T16:18:48.965Z,1010.30
2022-10-17T16:19:48.953Z,1010.31
2022-10-17T16:20:48.930Z,1010.30
2022-10-17T16:21:48.937Z,1010.26
2022-10-17T16:22:48.909Z,1010.30
2022-10-17T16:23:48.904Z,1010.35
2022-10-17T16:24:48.885Z,1010.34
2022-10-17T16:25:48.886Z,1010.40
2022-10-17T16:26:48.882Z,1010.42
2022-10-17T16:27:48.861Z,1010.46
2022-10-17T16:28:48.922Z,1010.49
2022-10-17T16:29:48.842Z,1010.52
2022-10-17T16:30:48.845Z,1010.55
2022-10-17T16:31:48.815Z,1010.54
2022-10-17T16:32:48.803Z,1010.56
2022-10-17T16:33:48.807Z,1010.59
2022-10-17T16:34:48.779Z,1010.61
2022-10-17T16:35:48.793Z,1010.65
2022-10-17T16:36:48.760Z,1010.65
2022-10-17T16:37:48.757Z,1010.65
2022-10-17T16:38:48.752Z,1010.67
2022-10-17T16:39:48.735Z,1010.70
2022-10-17T16:40:48.739Z,1010.72
2022-10-17T16:41:48.716Z,1010.74
2022-10-17T16:42:48.702Z,1010.75
2022-10-17T16:43:48.694Z,1010.79
2022-10-17T16:44:48.689Z,1010.81
2022-10-17T16:45:48.697Z,1010.82
2022-10-17T16:46:48.665Z,1010.84
2022-10-17T16:47:48.656Z,1010.86
2022-10-17T16:48:48.641Z,1010.89
2022-10-17T16:49:48.639Z,1010.91
2022-10-17T16:50:48.654Z,1010.93
2022-10-17T16:51:48.637Z,1010.95
2022-10-17T16:52:48.599Z,1010.96
2022-10-17T16:53:48.597Z,1010.96
2022-10-17T16:54:48.585Z,1010.97
2022-10-17T16:55:48.589Z,1010.97
2022-10-17T16:56:48.555Z,1010.98